Time;durP1;ratioP1;P1;durP2;ratioP2;P2;SDS_P1;SDS_P2;PMS_P1;PMS_P2;Temp;Humidity;BMP_temperature;BMP_pressure;BME280_temperature;BME280_humidity;BME280_pressure;Samples;Min_cycle;Max_cycle;Signal;HPM_P1;HPM_P2
2021/06/20 00:00:37;;;;;;;9.68;7.93;;;19.30;99.90;;;;;;6339809;22;20368;-95
2021/06/20 00:03:06;;;;;;;10.05;7.60;;;19.30;99.90;;;;;;6317633;22;20749;-94
2021/06/20 00:05:49;;;;;;;11.27;7.88;;;19.30;99.90;;;;;;6315686;22;20381;-95
2021/06/20 00:08:17;;;;;;;9.90;7.30;;;19.30;99.90;;;;;;6342103;22;20385;-94
2021/06/20 00:10:45;;;;;;;11.93;7.55;;;19.30;99.90;;;;;;6341778;22;20444;-96
2021/06/20 00:13:12;;;;;;;9.50;7.50;;;19.30;99.90;;;;;;6314293;22;20479;-95
2021/06/20 00:15:39;;;;;;;9.85;7.22;;;19.20;99.90;;;;;;6341839;22;20954;-95
2021/06/20 00:18:07;;;;;;;9.00;7.40;;;19.20;99.90;;;;;;6341506;22;20385;-95
2021/06/20 00:20:43;;;;;;;11.63;7.55;;;19.20;99.90;;;;;;6339178;22;20470;-95
2021/06/20 00:23:10;;;;;;;11.00;7.40;;;19.20;99.90;;;;;;6286522;22;20410;-95
2021/06/20 00:25:38;;;;;;;12.80;7.43;;;19.20;99.90;;;;;;6310267;22;20382;-95
2021/06/20 00:28:05;;;;;;;13.38;7.25;;;19.30;99.90;;;;;;6306658;22;20386;-95
2021/06/20 00:30:34;;;;;;;15.05;7.70;;;19.20;99.90;;;;;;6309430;22;20417;-96
2021/06/20 00:33:02;;;;;;;11.73;7.57;;;19.20;99.90;;;;;;6310355;22;20393;-95
2021/06/20 00:35:34;;;;;;;12.25;7.53;;;19.20;99.90;;;;;;6309732;22;20389;-95
2021/06/20 00:38:01;;;;;;;9.23;7.40;;;19.20;99.90;;;;;;6310138;22;20408;-95
2021/06/20 00:40:29;;;;;;;11.85;7.28;;;19.20;99.90;;;;;;6311098;22;20506;-94
2021/06/20 00:42:58;;;;;;;11.57;7.38;;;19.20;99.90;;;;;;6311032;22;20704;-94
2021/06/20 00:45:26;;;;;;;9.25;7.25;;;19.10;99.90;;;;;;6311898;22;20383;-95
2021/06/20 00:47:55;;;;;;;11.77;7.65;;;19.10;99.90;;;;;;6309761;22;20386;-96
2021/06/20 00:50:27;;;;;;;13.13;7.47;;;19.10;99.90;;;;;;6310716;22;20382;-94
2021/06/20 00:52:57;;;;;;;9.30;7.78;;;19.10;99.90;;;;;;6309796;22;20469;-95
2021/06/20 00:55:28;;;;;;;9.70;7.40;;;19.10;99.90;;;;;;6310224;22;20379;-96
2021/06/20 00:57:58;;;;;;;10.60;7.53;;;19.00;99.90;;;;;;6313174;22;20391;-96
2021/06/20 01:00:26;;;;;;;9.18;7.05;;;18.90;99.90;;;;;;6309779;22;20441;-95
2021/06/20 01:02:53;;;;;;;10.25;7.18;;;18.90;99.90;;;;;;6307778;22;20383;-95
2021/06/20 01:05:22;;;;;;;11.05;7.60;;;18.80;99.90;;;;;;6308172;22;20378;-96
2021/06/20 01:07:54;;;;;;;10.48;7.35;;;18.70;99.90;;;;;;6306779;22;20381;-94
2021/06/20 01:10:25;;;;;;;10.50;7.40;;;18.70;99.90;;;;;;6308698;22;20383;-94
2021/06/20 01:12:53;;;;;;;10.75;6.97;;;18.60;99.90;;;;;;6308344;22;20378;-96
2021/06/20 01:15:21;;;;;;;13.02;7.45;;;18.60;99.90;;;;;;6307980;22;20388;-95
2021/06/20 01:17:49;;;;;;;9.27;7.50;;;18.70;99.90;;;;;;6309168;22;20762;-94
2021/06/20 01:20:18;;;;;;;10.45;7.55;;;18.60;99.90;;;;;;6309763;22;20409;-94
2021/06/20 01:22:48;;;;;;;10.40;7.90;;;18.60;99.90;;;;;;6312735;22;20422;-96
2021/06/20 01:25:21;;;;;;;41.42;9.20;;;18.70;99.90;;;;;;6312723;22;20526;-96
2021/06/20 01:27:57;;;;;;;32.92;8.40;;;18.60;99.90;;;;;;6312840;22;20756;-95
2021/06/20 01:30:31;;;;;;;12.02;7.88;;;18.50;99.90;;;;;;6316746;22;20464;-94
2021/06/20 01:33:00;;;;;;;10.80;7.25;;;18.60;99.90;;;;;;6318968;22;20986;-94
2021/06/20 01:35:27;;;;;;;14.80;7.35;;;18.60;99.90;;;;;;6317073;22;20869;-95
2021/06/20 01:37:56;;;;;;;9.25;7.35;;;18.70;99.90;;;;;;6339143;22;20403;-95
2021/06/20 01:40:27;;;;;;;10.40;7.63;;;18.70;99.90;;;;;;6350889;22;20922;-95
2021/06/20 01:42:56;;;;;;;10.60;7.50;;;18.60;99.90;;;;;;6347239;22;21420;-95
2021/06/20 01:45:27;;;;;;;9.75;7.82;;;18.60;99.90;;;;;;6352327;22;20406;-95
2021/06/20 01:48:01;;;;;;;13.73;7.40;;;18.70;99.90;;;;;;6324263;22;20379;-95
2021/06/20 01:50:35;;;;;;;11.00;7.38;;;18.70;99.90;;;;;;6324897;22;20370;-95
2021/06/20 01:53:13;;;;;;;10.23;8.10;;;18.80;99.90;;;;;;6346161;22;20728;-95
2021/06/20 01:55:43;;;;;;;12.93;7.85;;;18.70;99.90;;;;;;6347092;22;20383;-94
2021/06/20 01:58:15;;;;;;;9.90;7.93;;;18.70;99.90;;;;;;6347509;22;20414;-94
2021/06/20 02:00:47;;;;;;;11.40;7.67;;;18.50;99.90;;;;;;6347341;22;20695;-94
2021/06/20 02:03:18;;;;;;;9.02;8.00;;;18.60;99.90;;;;;;6346475;22;20462;-94
2021/06/20 02:05:47;;;;;;;10.07;8.23;;;18.50;99.90;;;;;;6346907;22;20699;-94
2021/06/20 02:08:18;;;;;;;11.20;7.90;;;18.50;99.90;;;;;;6345574;22;20389;-94
2021/06/20 02:10:49;;;;;;;13.98;8.05;;;18.40;99.90;;;;;;6345505;22;20379;-94
2021/06/20 02:13:18;;;;;;;14.50;7.95;;;18.50;99.90;;;;;;6344853;22;20386;-94
2021/06/20 02:15:45;;;;;;;11.25;7.60;;;18.40;99.90;;;;;;6344979;22;20375;-94
2021/06/20 02:18:13;;;;;;;9.35;7.60;;;18.40;99.90;;;;;;6345483;22;20471;-94
2021/06/20 02:20:41;;;;;;;11.68;7.97;;;18.40;99.90;;;;;;6359933;22;20379;-96
2021/06/20 02:23:08;;;;;;;11.85;7.50;;;18.30;99.90;;;;;;6371540;22;20391;-96
2021/06/20 02:25:36;;;;;;;9.57;7.50;;;18.30;99.90;;;;;;6371211;22;20382;-96
2021/06/20 02:28:04;;;;;;;12.43;7.88;;;18.30;99.90;;;;;;6371041;22;20375;-94
2021/06/20 02:30:31;;;;;;;11.50;7.95;;;18.20;99.90;;;;;;6372144;22;20379;-96
2021/06/20 02:32:58;;;;;;;9.40;7.65;;;18.20;99.90;;;;;;6372168;22;20866;-95
2021/06/20 02:35:25;;;;;;;13.45;7.45;;;18.20;99.90;;;;;;6370875;22;20686;-94
2021/06/20 02:37:53;;;;;;;13.15;7.65;;;18.30;99.90;;;;;;6371253;22;20414;-94
2021/06/20 02:40:21;;;;;;;10.93;7.70;;;18.30;99.90;;;;;;6372498;22;20398;-96
2021/06/20 02:42:48;;;;;;;11.68;7.53;;;18.50;99.90;;;;;;6370779;22;20383;-95
2021/06/20 02:45:21;;;;;;;10.57;7.63;;;18.40;99.90;;;;;;6371095;22;20375;-95
2021/06/20 02:47:49;;;;;;;9.68;7.90;;;18.30;99.90;;;;;;6372956;22;20375;-96
2021/06/20 02:50:17;;;;;;;11.63;7.97;;;18.30;99.90;;;;;;6371988;22;20385;-96
2021/06/20 02:52:45;;;;;;;13.18;7.90;;;18.30;99.90;;;;;;6371346;22;20392;-94
2021/06/20 02:55:12;;;;;;;14.47;8.33;;;18.30;99.90;;;;;;6371349;22;20385;-96
2021/06/20 02:57:40;;;;;;;11.63;8.32;;;18.30;99.90;;;;;;6372445;22;20391;-95
2021/06/20 03:00:08;;;;;;;12.07;7.47;;;18.30;99.90;;;;;;6372801;22;20500;-94
2021/06/20 03:02:35;;;;;;;13.30;7.68;;;18.50;99.90;;;;;;6373841;22;20393;-94
2021/06/20 03:05:03;;;;;;;9.73;7.50;;;18.60;99.90;;;;;;6372210;22;20381;-94
2021/06/20 03:07:30;;;;;;;12.10;7.70;;;18.70;99.90;;;;;;6373444;22;20707;-96
2021/06/20 03:09:57;;;;;;;10.23;7.47;;;18.80;99.90;;;;;;6372310;22;20458;-94
2021/06/20 03:12:25;;;;;;;12.40;7.80;;;18.70;99.90;;;;;;6371814;22;20851;-95
2021/06/20 03:14:52;;;;;;;13.70;7.97;;;18.70;99.90;;;;;;6372177;22;20383;-96
2021/06/20 03:17:19;;;;;;;12.40;7.90;;;18.60;99.90;;;;;;6375454;22;20844;-96
2021/06/20 03:19:48;;;;;;;12.02;8.07;;;18.60;99.90;;;;;;6375211;22;20375;-96
2021/06/20 03:22:15;;;;;;;11.20;7.72;;;18.60;99.90;;;;;;6371827;22;20470;-96
2021/06/20 03:24:47;;;;;;;10.47;7.70;;;18.50;99.90;;;;;;6372034;22;20467;-94
2021/06/20 03:27:16;;;;;;;9.43;8.20;;;18.50;99.90;;;;;;6372457;22;20462;-94
2021/06/20 03:29:47;;;;;;;10.40;7.80;;;18.50;99.90;;;;;;6374378;22;20375;-95
2021/06/20 03:32:15;;;;;;;12.07;7.72;;;18.50;99.90;;;;;;6373750;22;20474;-95
2021/06/20 03:34:43;;;;;;;10.07;8.02;;;18.60;99.90;;;;;;6373911;22;20470;-96
2021/06/20 03:37:11;;;;;;;9.20;7.53;;;18.70;99.90;;;;;;6372853;22;20383;-95
2021/06/20 03:39:42;;;;;;;12.13;7.53;;;18.80;99.90;;;;;;6375447;22;20407;-95
2021/06/20 03:42:09;;;;;;;10.55;7.60;;;19.00;99.90;;;;;;6374743;22;20409;-95
2021/06/20 03:44:36;;;;;;;12.30;7.60;;;19.20;99.90;;;;;;6373137;22;20920;-95
2021/06/20 03:47:03;;;;;;;13.40;7.33;;;19.40;99.90;;;;;;6373642;22;20411;-94
2021/06/20 03:49:31;;;;;;;10.73;7.65;;;19.50;99.90;;;;;;6372067;22;20379;-95
2021/06/20 03:51:58;;;;;;;9.43;7.22;;;19.40;99.90;;;;;;6375899;22;20462;-95
2021/06/20 03:54:26;;;;;;;10.18;7.18;;;19.50;99.90;;;;;;6373392;22;20700;-95
2021/06/20 03:56:54;;;;;;;9.70;7.38;;;19.40;99.90;;;;;;6376329;22;20426;-96
2021/06/20 03:59:24;;;;;;;8.55;7.65;;;19.60;99.90;;;;;;6373764;22;20538;-96
2021/06/20 04:01:52;;;;;;;12.57;7.17;;;19.60;99.90;;;;;;6376082;22;20383;-96
2021/06/20 04:04:21;;;;;;;9.70;7.20;;;19.50;99.90;;;;;;6373272;22;20379;-95
2021/06/20 04:06:48;;;;;;;11.43;6.95;;;19.50;99.90;;;;;;6372746;22;20379;-96
2021/06/20 04:09:15;;;;;;;11.25;7.35;;;19.60;99.90;;;;;;6373126;22;20455;-96
2021/06/20 04:11:43;;;;;;;9.20;6.90;;;19.70;99.90;;;;;;6372866;22;20462;-96
2021/06/20 04:14:10;;;;;;;11.07;7.78;;;19.80;99.90;;;;;;6374991;22;20674;-96
2021/06/20 04:16:37;;;;;;;8.87;7.07;;;19.90;99.90;;;;;;6373900;22;20904;-96
2021/06/20 04:19:04;;;;;;;10.35;7.50;;;19.90;99.90;;;;;;6373769;22;20383;-96
2021/06/20 04:21:31;;;;;;;11.90;7.35;;;19.80;99.90;;;;;;6371914;22;20375;-96
2021/06/20 04:23:58;;;;;;;8.10;7.25;;;19.90;99.90;;;;;;6372605;22;20470;-96
2021/06/20 04:26:26;;;;;;;12.27;7.93;;;20.00;99.90;;;;;;6373219;22;20455;-96
2021/06/20 04:28:54;;;;;;;12.68;7.50;;;20.00;99.90;;;;;;6371640;22;20470;-95
2021/06/20 04:31:21;;;;;;;10.77;7.68;;;20.10;99.90;;;;;;6372903;22;20473;-96
2021/06/20 04:33:49;;;;;;;11.70;7.90;;;20.00;99.90;;;;;;6371383;22;20466;-96
2021/06/20 04:36:16;;;;;;;11.23;7.50;;;19.90;99.90;;;;;;6369917;22;20379;-95
2021/06/20 04:38:44;;;;;;;9.32;7.63;;;20.00;99.90;;;;;;6370388;22;20506;-95
2021/06/20 04:41:14;;;;;;;10.67;7.77;;;20.00;99.90;;;;;;6370576;22;20384;-96
2021/06/20 04:46:29;;;;;;;10.20;7.88;;;19.90;99.90;;;;;;6371904;22;20371;-94
2021/06/20 04:49:06;;;;;;;8.87;7.60;;;20.20;99.90;;;;;;6376144;22;20379;-95
2021/06/20 04:51:39;;;;;;;15.07;7.87;;;20.30;99.90;;;;;;6370796;22;20436;-95
2021/06/20 04:54:12;;;;;;;9.95;6.93;;;20.40;99.90;;;;;;6372064;22;20386;-96
2021/06/20 04:56:41;;;;;;;10.18;7.88;;;20.50;99.90;;;;;;6370129;22;20450;-95
2021/06/20 04:59:09;;;;;;;9.13;7.67;;;20.60;99.90;;;;;;6369878;22;20378;-96
2021/06/20 05:01:37;;;;;;;11.30;8.48;;;20.50;99.90;;;;;;6369727;22;20375;-96
2021/06/20 05:04:06;;;;;;;20.55;13.27;;;20.60;99.90;;;;;;6369803;22;20383;-95
2021/06/20 05:06:33;;;;;;;14.77;10.55;;;20.60;99.90;;;;;;6371629;22;20379;-94
2021/06/20 05:09:00;;;;;;;13.07;8.45;;;20.60;99.90;;;;;;6370169;22;20398;-96
2021/06/20 05:11:27;;;;;;;9.40;7.70;;;20.70;99.90;;;;;;6369707;22;20379;-96
2021/06/20 05:13:54;;;;;;;10.93;7.50;;;20.70;99.90;;;;;;6370490;22;20381;-96
2021/06/20 05:16:22;;;;;;;9.63;7.83;;;20.70;99.90;;;;;;6369897;22;20379;-95
2021/06/20 05:18:49;;;;;;;11.55;7.72;;;20.60;99.90;;;;;;6372651;22;20395;-94
2021/06/20 05:21:16;;;;;;;10.05;7.85;;;20.70;99.90;;;;;;6372079;22;20375;-95
2021/06/20 05:23:44;;;;;;;10.80;7.83;;;20.70;99.90;;;;;;6372336;22;20382;-94
2021/06/20 05:26:11;;;;;;;10.60;8.20;;;20.80;99.90;;;;;;6372127;22;20386;-94
2021/06/20 05:28:42;;;;;;;10.40;8.53;;;20.90;99.90;;;;;;6372234;22;20727;-96
2021/06/20 05:31:09;;;;;;;9.93;8.07;;;20.90;99.90;;;;;;6371239;22;20470;-94
2021/06/20 05:33:50;;;;;;;10.70;8.10;;;20.80;99.90;;;;;;6371840;22;20785;-94
2021/06/20 05:36:19;;;;;;;12.77;7.75;;;20.90;99.90;;;;;;6374109;22;20699;-96
2021/06/20 05:38:47;;;;;;;10.82;7.93;;;20.90;99.90;;;;;;6290848;22;20393;-94
2021/06/20 05:41:14;;;;;;;10.70;8.13;;;21.00;99.90;;;;;;6318533;22;20432;-96
2021/06/20 05:43:41;;;;;;;9.98;7.97;;;21.10;99.90;;;;;;6316274;22;20380;-94
2021/06/20 05:46:08;;;;;;;10.60;7.95;;;21.30;99.90;;;;;;6319277;22;20375;-93
2021/06/20 05:48:35;;;;;;;11.07;7.70;;;21.40;99.90;;;;;;6318729;22;20381;-93
2021/06/20 05:51:02;;;;;;;12.55;7.75;;;21.60;99.90;;;;;;6316064;22;20385;-93
2021/06/20 05:53:29;;;;;;;11.85;7.78;;;21.70;99.90;;;;;;6315614;22;20388;-94
2021/06/20 05:55:56;;;;;;;11.98;7.68;;;21.90;99.90;;;;;;6313083;22;20383;-92
2021/06/20 05:58:26;;;;;;;9.13;7.38;;;22.20;99.90;;;;;;6313162;22;20450;-95
2021/06/20 06:00:53;;;;;;;9.52;7.13;;;22.60;99.90;;;;;;6314423;22;20916;-96
2021/06/20 06:03:20;;;;;;;9.20;7.18;;;22.90;99.90;;;;;;6313376;22;20387;-95
2021/06/20 06:05:47;;;;;;;10.45;6.97;;;23.30;99.90;;;;;;6313052;22;20846;-95
2021/06/20 06:08:17;;;;;;;8.77;7.28;;;23.70;99.90;;;;;;6321949;22;20434;-93
2021/06/20 06:10:45;;;;;;;9.40;7.10;;;24.10;99.90;;;;;;6331377;22;20384;-94
2021/06/20 06:13:12;;;;;;;18.67;7.22;;;24.30;99.90;;;;;;6323154;22;20472;-95
2021/06/20 06:15:39;;;;;;;9.05;6.97;;;24.70;99.90;;;;;;6320472;22;20496;-95
2021/06/20 06:18:07;;;;;;;8.00;6.85;;;24.80;99.90;;;;;;6314339;22;20388;-94
2021/06/20 06:20:34;;;;;;;11.45;6.68;;;25.20;99.90;;;;;;6313224;22;20388;-94
2021/06/20 06:23:01;;;;;;;8.82;6.43;;;25.20;99.90;;;;;;6313934;22;20671;-95
2021/06/20 06:25:28;;;;;;;9.25;7.13;;;25.60;99.90;;;;;;6325224;22;20430;-96
2021/06/20 06:27:56;;;;;;;10.65;7.38;;;25.40;99.90;;;;;;6319887;22;20430;-96
2021/06/20 06:30:24;;;;;;;7.68;6.85;;;25.10;99.90;;;;;;6320739;22;20387;-96
2021/06/20 06:32:51;;;;;;;9.48;7.03;;;24.90;99.90;;;;;;6315866;22;20383;-96
2021/06/20 06:35:18;;;;;;;8.98;7.00;;;24.80;99.90;;;;;;6314487;22;20388;-95
2021/06/20 06:37:51;;;;;;;9.40;6.88;;;24.80;99.90;;;;;;6348663;22;20387;-96
2021/06/20 06:40:18;;;;;;;9.68;7.30;;;24.80;99.90;;;;;;6378025;22;20377;-94
2021/06/20 06:42:53;;;;;;;8.15;6.68;;;25.20;99.90;;;;;;6376226;22;20414;-95
2021/06/20 06:45:20;;;;;;;8.52;6.82;;;25.30;99.90;;;;;;6374308;22;20379;-96
2021/06/20 06:47:48;;;;;;;9.07;7.00;;;25.30;99.90;;;;;;6371337;22;20380;-94
2021/06/20 06:50:15;;;;;;;8.67;6.83;;;25.40;99.90;;;;;;6372942;22;20386;-95
2021/06/20 06:52:43;;;;;;;9.73;6.93;;;25.50;99.90;;;;;;6349637;22;20406;-96
2021/06/20 06:55:10;;;;;;;9.85;6.80;;;25.60;99.90;;;;;;6377100;22;20470;-96
2021/06/20 06:57:45;;;;;;;11.48;7.32;;;25.50;99.90;;;;;;6375306;22;20479;-94
2021/06/20 07:00:39;;;;;;;12.25;7.38;;;25.80;99.90;;;;;;6381660;22;20379;-96
2021/06/20 07:03:08;;;;;;;8.45;7.38;;;26.00;99.90;;;;;;6353603;22;20711;-96
2021/06/20 07:05:36;;;;;;;11.65;7.57;;;26.10;99.90;;;;;;6287814;22;20382;-95
2021/06/20 07:08:03;;;;;;;9.20;7.50;;;26.10;99.80;;;;;;6290153;22;20393;-96
2021/06/20 07:10:31;;;;;;;8.23;7.20;;;26.30;99.90;;;;;;6292270;22;20382;-96
2021/06/20 07:12:59;;;;;;;10.38;7.40;;;26.20;99.90;;;;;;6289584;22;20418;-96
2021/06/20 07:15:26;;;;;;;10.00;7.47;;;26.20;99.90;;;;;;6289299;22;20387;-95
2021/06/20 07:17:55;;;;;;;8.80;7.50;;;26.30;99.90;;;;;;6285538;22;20393;-96
2021/06/20 07:20:22;;;;;;;15.50;7.33;;;26.50;99.90;;;;;;6285442;22;20382;-96
2021/06/20 07:23:41;;;;;;;10.23;7.55;;;26.50;99.60;;;;;;6290553;22;20434;-96
2021/06/20 15:51:21;;;;;;;9.25;3.95;;;32.60;59.40;;;;;;6312013;22;20439;-95
2021/06/20 15:54:09;;;;;;;9.85;4.57;;;32.00;66.80;;;;;;6284902;22;20438;-95
2021/06/20 15:56:59;;;;;;;;;;;;;;;;;;;;;
2021/06/20 16:00:55;;;;;;;8.90;3.58;;;31.60;67.20;;;;;;6289163;22;20394;-96
2021/06/20 16:10:26;;;;;;;8.73;4.60;;;32.00;66.40;;;;;;6278529;22;20474;-94
2021/06/20 16:12:53;;;;;;;14.20;4.60;;;31.80;64.70;;;;;;6254122;22;20384;-96
2021/06/20 16:15:23;;;;;;;10.83;4.20;;;31.40;65.80;;;;;;6254975;22;20458;-95
2021/06/20 16:17:51;;;;;;;10.35;4.65;;;31.20;66.80;;;;;;6252708;22;20376;-95
2021/06/20 16:20:22;;;;;;;12.23;5.35;;;30.60;71.20;;;;;;6252248;22;20385;-93
2021/06/20 16:22:50;;;;;;;15.07;4.53;;;30.00;70.00;;;;;;6254064;22;20454;-92
2021/06/20 16:25:18;;;;;;;10.32;4.13;;;29.50;64.00;;;;;;6257072;22;20463;-95
2021/06/20 16:27:54;;;;;;;17.20;5.30;;;29.10;72.80;;;;;;6257261;22;20387;-94
2021/06/20 16:30:23;;;;;;;13.20;4.63;;;28.50;71.90;;;;;;6256915;22;20408;-95
2021/06/20 16:32:53;;;;;;;15.35;6.20;;;28.00;77.30;;;;;;6257640;22;20384;-95
2021/06/20 16:35:20;;;;;;;14.50;8.40;;;27.60;79.60;;;;;;6256866;22;20849;-96
2021/06/20 16:37:51;;;;;;;13.48;7.57;;;27.50;82.00;;;;;;6256837;22;20412;-95
2021/06/20 16:40:19;;;;;;;16.20;8.57;;;27.50;86.80;;;;;;6255831;22;20404;-96
2021/06/20 16:42:48;;;;;;;16.60;8.82;;;27.30;88.10;;;;;;6259944;22;20384;-95
2021/06/20 16:45:21;;;;;;;17.23;8.90;;;27.40;85.90;;;;;;6263017;22;20452;-95
2021/06/20 16:47:50;;;;;;;18.30;8.98;;;27.40;89.50;;;;;;6261655;22;20380;-95
2021/06/20 16:50:19;;;;;;;15.20;9.00;;;27.30;90.30;;;;;;6257884;22;20895;-96
2021/06/20 16:52:52;;;;;;;11.53;8.90;;;27.10;90.40;;;;;;6284506;22;20386;-95
2021/06/20 16:55:22;;;;;;;17.38;8.55;;;27.10;91.50;;;;;;6257209;22;20388;-95
2021/06/20 16:57:54;;;;;;;13.38;8.40;;;27.10;90.00;;;;;;6258867;22;20387;-96
2021/06/20 17:00:22;;;;;;;16.13;8.90;;;27.00;90.40;;;;;;6256748;22;20864;-95
2021/06/20 17:02:50;;;;;;;12.05;8.32;;;27.20;90.40;;;;;;6260193;22;20373;-96
2021/06/20 17:05:18;;;;;;;17.58;8.63;;;27.10;90.60;;;;;;6261235;22;20415;-95
2021/06/20 17:07:48;;;;;;;15.82;8.48;;;27.00;90.60;;;;;;6262424;22;20429;-95
2021/06/20 17:10:19;;;;;;;11.82;8.10;;;27.00;93.00;;;;;;6263032;22;20395;-95
2021/06/20 17:12:49;;;;;;;11.93;8.52;;;26.80;93.50;;;;;;6239551;22;20391;-96
2021/06/20 17:15:18;;;;;;;17.83;8.75;;;26.70;94.10;;;;;;6266123;22;20384;-95
2021/06/20 17:17:48;;;;;;;14.43;8.82;;;26.70;93.40;;;;;;6266575;22;20376;-96
2021/06/20 17:20:19;;;;;;;13.93;8.65;;;26.60;94.90;;;;;;6262294;22;20384;-96
2021/06/20 17:22:50;;;;;;;17.60;8.88;;;26.60;95.40;;;;;;6260743;22;20468;-96
2021/06/20 17:25:19;;;;;;;12.50;8.57;;;26.60;94.80;;;;;;6237174;22;20474;-94
2021/06/20 17:28:07;;;;;;;15.63;8.90;;;26.50;96.00;;;;;;6267183;22;20388;-96
2021/06/20 17:36:33;;;;;;;14.00;9.02;;;26.40;93.80;;;;;;6312438;22;20883;-95
2021/06/20 17:39:47;;;;;;;11.27;8.73;;;26.20;95.60;;;;;;6293949;22;20404;-96
2021/06/20 17:42:46;;;;;;;13.48;9.45;;;25.90;96.60;;;;;;6296357;22;20374;-95
2021/06/20 17:45:44;;;;;;;12.70;9.10;;;25.50;98.20;;;;;;6235552;23;20433;-96
2021/06/20 17:48:53;;;;;;;13.27;9.63;;;25.40;98.00;;;;;;6263548;23;20393;-96
2021/06/20 17:52:09;;;;;;;14.02;9.23;;;25.30;98.80;;;;;;6123744;23;20397;-96
2021/06/20 17:55:58;;;;;;;15.25;9.57;;;25.10;98.90;;;;;;6093800;23;20393;-96
2021/06/20 18:47:07;;;;;;;19.20;11.15;;;24.30;99.90;;;;;;6318693;22;20410;-95
2021/06/20 18:49:58;;;;;;;13.73;11.25;;;24.20;99.90;;;;;;6323738;22;20371;-95
2021/06/20 18:53:09;;;;;;;13.80;11.00;;;24.10;99.90;;;;;;6300481;22;20366;-96
2021/06/20 18:58:42;;;;;;;14.43;11.32;;;24.10;99.90;;;;;;6308865;22;20390;-95
2021/06/20 19:04:18;;;;;;;17.10;11.50;;;23.90;99.90;;;;;;6298983;22;20388;-95
2021/06/20 19:07:42;;;;;;;17.40;11.52;;;23.90;99.90;;;;;;6326533;22;20448;-95
2021/06/20 19:11:10;;;;;;;14.77;11.43;;;23.70;99.90;;;;;;6348900;22;20400;-93
2021/06/20 19:14:58;;;;;;;17.45;11.40;;;23.70;99.90;;;;;;6347688;22;20381;-95
2021/06/20 19:18:34;;;;;;;14.07;11.25;;;23.70;99.90;;;;;;6313499;22;20441;-96
2021/06/20 19:21:50;;;;;;;15.77;11.40;;;23.70;99.90;;;;;;6350854;22;20390;-94
2021/06/20 19:25:00;;;;;;;15.50;11.82;;;23.70;99.90;;;;;;6218110;23;20380;-95
2021/06/20 19:27:57;;;;;;;14.32;11.75;;;23.60;99.90;;;;;;6222407;23;20939;-95
2021/06/20 19:35:00;;;;;;;16.05;11.40;;;23.50;99.90;;;;;;6116558;23;20457;-94
2021/06/20 19:37:54;;;;;;;14.75;10.93;;;23.50;99.90;;;;;;6115168;23;20396;-94
2021/06/20 19:43:40;;;;;;;13.63;11.05;;;23.50;99.90;;;;;;6323844;22;20382;-93
2021/06/20 19:46:55;;;;;;;17.17;10.95;;;23.50;99.90;;;;;;6292929;22;20371;-94
2021/06/20 19:50:02;;;;;;;17.33;10.90;;;23.50;99.90;;;;;;6156566;23;20378;-94
2021/06/20 19:57:04;;;;;;;16.17;11.33;;;23.40;99.90;;;;;;6195633;23;20472;-94
2021/06/20 20:00:17;;;;;;;14.93;11.20;;;23.30;99.90;;;;;;6158532;23;20412;-94
2021/06/20 20:03:24;;;;;;;18.25;10.68;;;23.30;99.90;;;;;;6185072;23;20385;-95
2021/06/20 20:24:59;;;;;;;14.18;10.40;;;23.00;99.90;;;;;;6261234;22;20388;-95
2021/06/20 20:28:03;;;;;;;13.30;10.20;;;23.10;99.90;;;;;;6261682;22;20396;-96
2021/06/20 20:41:51;;;;;;;15.60;11.05;;;22.90;99.90;;;;;;6270244;22;20388;-96
2021/06/20 20:53:50;;;;;;;12.93;10.80;;;22.90;99.90;;;;;;6321132;22;20387;-95
2021/06/20 20:57:14;;;;;;;15.38;10.80;;;22.80;99.90;;;;;;6250016;23;20398;-95
2021/06/20 21:03:32;;;;;;;16.48;10.38;;;22.80;99.90;;;;;;6263919;23;20489;-96
2021/06/20 21:06:39;;;;;;;14.83;10.33;;;22.80;99.90;;;;;;6233949;22;20396;-94
2021/06/20 21:09:14;;;;;;;17.23;10.65;;;22.70;99.90;;;;;;6224067;22;20386;-96
2021/06/20 21:12:13;;;;;;;13.60;10.93;;;22.70;99.90;;;;;;6324434;22;20386;-96
2021/06/20 21:15:16;;;;;;;14.98;10.55;;;22.70;99.90;;;;;;6305967;22;20675;-95
2021/06/20 21:18:03;;;;;;;14.82;10.90;;;22.70;99.90;;;;;;6299855;22;20400;-96
2021/06/20 21:20:35;;;;;;;13.68;10.75;;;22.60;99.90;;;;;;6246438;22;20421;-96
2021/06/20 21:23:04;;;;;;;15.65;11.25;;;22.70;99.90;;;;;;6295070;22;20457;-96
2021/06/20 21:25:42;;;;;;;14.45;11.15;;;22.60;99.90;;;;;;6323486;22;20708;-95
2021/06/20 21:28:17;;;;;;;15.27;11.18;;;22.60;99.90;;;;;;6323390;22;20413;-96
2021/06/20 21:30:51;;;;;;;14.30;10.88;;;22.60;99.90;;;;;;6272924;22;20933;-96
2021/06/20 21:33:41;;;;;;;14.50;10.70;;;22.60;99.90;;;;;;6299902;22;20382;-95
2021/06/20 21:36:13;;;;;;;13.45;10.73;;;22.60;99.90;;;;;;6277934;22;20854;-94
2021/06/20 21:38:46;;;;;;;20.00;11.20;;;22.50;99.90;;;;;;6315911;22;20473;-93
2021/06/20 21:41:22;;;;;;;17.48;10.95;;;22.50;99.90;;;;;;6290369;22;20859;-94
2021/06/20 21:44:04;;;;;;;14.68;10.85;;;22.60;99.90;;;;;;6294716;22;20418;-96
2021/06/20 21:46:50;;;;;;;14.70;10.50;;;22.50;99.90;;;;;;6296078;22;20450;-93
2021/06/20 21:49:41;;;;;;;21.25;10.95;;;22.70;99.90;;;;;;6316634;22;20367;-95
2021/06/20 21:52:34;;;;;;;15.07;10.20;;;22.70;99.90;;;;;;6298143;22;20473;-96
2021/06/20 21:55:23;;;;;;;17.83;10.50;;;22.70;99.90;;;;;;6241076;22;20371;-92
2021/06/20 21:58:23;;;;;;;16.95;10.60;;;22.70;99.90;;;;;;6146214;23;20446;-96
2021/06/20 22:00:54;;;;;;;15.63;10.13;;;22.70;99.90;;;;;;6165492;23;20503;-95
2021/06/20 22:03:48;;;;;;;14.43;10.38;;;22.80;99.90;;;;;;6123856;23;20383;-96
2021/06/20 22:06:17;;;;;;;14.27;10.17;;;22.80;99.90;;;;;;6167078;23;20429;-95
2021/06/20 22:08:44;;;;;;;12.68;10.45;;;22.70;99.90;;;;;;6164094;23;20395;-96
2021/06/20 22:11:16;;;;;;;14.07;10.80;;;22.80;99.90;;;;;;6191990;23;20469;-96
2021/06/20 22:13:48;;;;;;;16.17;10.23;;;22.80;99.90;;;;;;6172251;23;20464;-95
2021/06/20 22:16:17;;;;;;;17.05;10.95;;;22.80;99.90;;;;;;6193775;23;20409;-93
2021/06/20 22:18:55;;;;;;;17.73;10.98;;;22.70;99.90;;;;;;6169550;23;20396;-96
2021/06/20 22:21:22;;;;;;;16.13;10.77;;;22.70;99.90;;;;;;6174864;23;20377;-96
2021/06/20 22:24:29;;;;;;;16.27;10.95;;;22.70;99.90;;;;;;6174103;23;20412;-96
2021/06/20 22:27:54;;;;;;;17.05;10.63;;;22.80;99.90;;;;;;6199577;23;20362;-93
2021/06/20 22:31:21;;;;;;;15.65;11.00;;;22.70;99.90;;;;;;6174694;23;20407;-93
2021/06/20 22:34:04;;;;;;;15.50;10.63;;;22.70;99.90;;;;;;6117904;23;20394;-95
2021/06/20 22:42:18;;;;;;;21.58;10.55;;;22.70;99.90;;;;;;6313613;22;20935;-92
2021/06/20 22:44:56;;;;;;;15.80;10.67;;;22.80;99.90;;;;;;6295877;22;20390;-93
2021/06/20 22:48:19;;;;;;;18.10;11.15;;;22.90;99.90;;;;;;6318420;22;20361;-94
2021/06/20 22:51:18;;;;;;;20.65;11.43;;;23.00;99.90;;;;;;6322245;22;20823;-94
2021/06/20 22:54:09;;;;;;;18.15;10.98;;;22.90;99.90;;;;;;6271998;22;20390;-95
2021/06/20 22:56:55;;;;;;;17.85;10.95;;;22.90;99.90;;;;;;6256969;22;20516;-96
2021/06/20 23:00:20;;;;;;;16.25;10.85;;;22.80;99.90;;;;;;6292790;22;20451;-94
2021/06/20 23:03:44;;;;;;;18.55;11.63;;;23.00;99.90;;;;;;6176390;23;20393;-94
2021/06/20 23:07:11;;;;;;;19.53;11.43;;;22.90;99.90;;;;;;6254617;23;20373;-94
2021/06/20 23:10:13;;;;;;;20.02;11.10;;;22.80;99.90;;;;;;6213104;23;20385;-93
2021/06/20 23:13:24;;;;;;;15.77;11.32;;;22.70;99.90;;;;;;6206915;23;20677;-96
2021/06/20 23:16:41;;;;;;;17.30;11.50;;;22.80;99.90;;;;;;6200679;22;20388;-93
2021/06/20 23:20:17;;;;;;;16.02;11.23;;;22.80;99.90;;;;;;6165857;22;20442;-94
2021/06/20 23:23:42;;;;;;;20.42;11.40;;;22.80;99.90;;;;;;6108308;23;20871;-95
2021/06/20 23:27:48;;;;;;;20.67;11.52;;;22.70;99.90;;;;;;6101468;23;20422;-92
2021/06/20 23:31:38;;;;;;;17.30;11.75;;;22.70;99.90;;;;;;6016904;23;20414;-94
2021/06/20 23:38:13;;;;;;;21.50;12.38;;;22.50;99.90;;;;;;6236055;22;20448;-96
2021/06/20 23:41:36;;;;;;;20.48;11.85;;;22.50;99.90;;;;;;6233527;22;20412;-92
2021/06/20 23:45:34;;;;;;;18.93;11.67;;;22.50;99.90;;;;;;6244765;22;20885;-94
2021/06/20 23:49:25;;;;;;;22.70;11.90;;;22.30;99.90;;;;;;6078349;23;20447;-94
2021/06/20 23:53:12;;;;;;;16.38;11.60;;;22.10;99.90;;;;;;6021533;23;20432;-95
2021/06/20 23:56:58;;;;;;;20.58;12.65;;;22.00;99.90;;;;;;5960183;24;20444;-95
